sensor_id;sensor_type;location;lat;lon;timestamp;temperature;humidity
78514;SHT31;67814;51.976;5.810;2023-08-01T00:02:00;19.7;75.4
78514;SHT31;67814;51.976;5.810;2023-08-01T00:04:28;19.7;75.4
78514;SHT31;67814;51.976;5.810;2023-08-01T00:06:57;19.7;75.5
78514;SHT31;67814;51.976;5.810;2023-08-01T00:09:25;19.6;75.6
78514;SHT31;67814;51.976;5.810;2023-08-01T00:11:54;19.6;75.5
78514;SHT31;67814;51.976;5.810;2023-08-01T00:14:22;19.6;74.9
78514;SHT31;67814;51.976;5.810;2023-08-01T00:16:51;19.6;75.0
78514;SHT31;67814;51.976;5.810;2023-08-01T00:19:22;19.6;74.5
78514;SHT31;67814;51.976;5.810;2023-08-01T00:21:50;19.6;74.0
78514;SHT31;67814;51.976;5.810;2023-08-01T00:24:19;19.5;73.3
78514;SHT31;67814;51.976;5.810;2023-08-01T00:26:47;19.5;73.9
78514;SHT31;67814;51.976;5.810;2023-08-01T00:29:15;19.4;74.2
78514;SHT31;67814;51.976;5.810;2023-08-01T00:31:44;19.4;74.5
78514;SHT31;67814;51.976;5.810;2023-08-01T00:34:12;19.3;73.9
78514;SHT31;67814;51.976;5.810;2023-08-01T00:36:41;19.2;74.6
78514;SHT31;67814;51.976;5.810;2023-08-01T00:39:09;19.1;75.0
78514;SHT31;67814;51.976;5.810;2023-08-01T00:41:38;19.1;75.4
78514;SHT31;67814;51.976;5.810;2023-08-01T00:44:07;19.0;75.4
78514;SHT31;67814;51.976;5.810;2023-08-01T00:46:35;19.0;75.5
78514;SHT31;67814;51.976;5.810;2023-08-01T00:49:04;19.0;75.2
78514;SHT31;67814;51.976;5.810;2023-08-01T00:51:35;19.0;75.7
78514;SHT31;67814;51.976;5.810;2023-08-01T00:54:04;19.0;75.8
78514;SHT31;67814;51.976;5.810;2023-08-01T00:56:33;19.0;75.9
78514;SHT31;67814;51.976;5.810;2023-08-01T00:59:02;19.0;75.6
78514;SHT31;67814;51.976;5.810;2023-08-01T01:01:30;19.0;76.0
78514;SHT31;67814;51.976;5.810;2023-08-01T01:04:01;19.0;76.2
78514;SHT31;67814;51.976;5.810;2023-08-01T01:06:32;19.0;76.4
78514;SHT31;67814;51.976;5.810;2023-08-01T01:09:03;19.0;76.0
78514;SHT31;67814;51.976;5.810;2023-08-01T01:11:36;19.0;76.2
78514;SHT31;67814;51.976;5.810;2023-08-01T01:14:04;19.1;76.2
78514;SHT31;67814;51.976;5.810;2023-08-01T01:16:33;19.1;76.0
78514;SHT31;67814;51.976;5.810;2023-08-01T01:19:01;19.1;76.0
78514;SHT31;67814;51.976;5.810;2023-08-01T01:21:31;19.1;76.0
78514;SHT31;67814;51.976;5.810;2023-08-01T01:24:02;19.1;75.7
78514;SHT31;67814;51.976;5.810;2023-08-01T01:26:32;19.1;75.5
78514;SHT31;67814;51.976;5.810;2023-08-01T01:29:03;19.0;75.8
78514;SHT31;67814;51.976;5.810;2023-08-01T01:31:33;19.0;75.8
78514;SHT31;67814;51.976;5.810;2023-08-01T01:34:03;19.0;75.9
78514;SHT31;67814;51.976;5.810;2023-08-01T01:36:32;18.9;76.2
78514;SHT31;67814;51.976;5.810;2023-08-01T01:39:00;18.9;76.0
78514;SHT31;67814;51.976;5.810;2023-08-01T01:41:29;18.9;76.5
78514;SHT31;67814;51.976;5.810;2023-08-01T01:43:57;18.9;76.7
78514;SHT31;67814;51.976;5.810;2023-08-01T01:46:26;18.9;76.9
78514;SHT31;67814;51.976;5.810;2023-08-01T01:48:54;18.9;76.7
78514;SHT31;67814;51.976;5.810;2023-08-01T01:51:25;18.9;76.5
78514;SHT31;67814;51.976;5.810;2023-08-01T01:53:53;18.9;75.9
78514;SHT31;67814;51.976;5.810;2023-08-01T01:56:22;18.9;75.7
78514;SHT31;67814;51.976;5.810;2023-08-01T01:58:51;18.9;75.4
78514;SHT31;67814;51.976;5.810;2023-08-01T02:01:19;18.9;75.2
78514;SHT31;67814;51.976;5.810;2023-08-01T02:03:48;18.9;74.9
78514;SHT31;67814;51.976;5.810;2023-08-01T02:06:16;18.9;74.9
78514;SHT31;67814;51.976;5.810;2023-08-01T02:08:45;18.9;74.8
78514;SHT31;67814;51.976;5.810;2023-08-01T02:11:14;18.8;74.7
78514;SHT31;67814;51.976;5.810;2023-08-01T02:13:44;18.8;74.8
78514;SHT31;67814;51.976;5.810;2023-08-01T02:16:12;18.8;74.9
78514;SHT31;67814;51.976;5.810;2023-08-01T02:18:41;18.8;75.0
78514;SHT31;67814;51.976;5.810;2023-08-01T02:21:09;18.7;75.1
78514;SHT31;67814;51.976;5.810;2023-08-01T02:23:38;18.7;75.1
78514;SHT31;67814;51.976;5.810;2023-08-01T02:26:06;18.7;75.2
78514;SHT31;67814;51.976;5.810;2023-08-01T02:28:35;18.6;75.4
78514;SHT31;67814;51.976;5.810;2023-08-01T02:31:03;18.6;75.6
78514;SHT31;67814;51.976;5.810;2023-08-01T02:33:32;18.6;75.5
78514;SHT31;67814;51.976;5.810;2023-08-01T02:36:00;18.5;75.7
78514;SHT31;67814;51.976;5.810;2023-08-01T02:38:29;18.5;75.8
78514;SHT31;67814;51.976;5.810;2023-08-01T02:40:58;18.5;75.6
78514;SHT31;67814;51.976;5.810;2023-08-01T02:43:26;18.5;75.7
78514;SHT31;67814;51.976;5.810;2023-08-01T02:45:55;18.4;75.9
78514;SHT31;67814;51.976;5.810;2023-08-01T02:48:23;18.4;75.8
78514;SHT31;67814;51.976;5.810;2023-08-01T02:50:52;18.4;75.9
78514;SHT31;67814;51.976;5.810;2023-08-01T02:53:20;18.4;76.0
78514;SHT31;67814;51.976;5.810;2023-08-01T02:55:48;18.4;76.3
78514;SHT31;67814;51.976;5.810;2023-08-01T02:58:17;18.4;76.5
78514;SHT31;67814;51.976;5.810;2023-08-01T03:00:45;18.4;76.5
78514;SHT31;67814;51.976;5.810;2023-08-01T03:03:14;18.4;76.4
78514;SHT31;67814;51.976;5.810;2023-08-01T03:05:43;18.3;76.4
78514;SHT31;67814;51.976;5.810;2023-08-01T03:08:11;18.3;76.6
78514;SHT31;67814;51.976;5.810;2023-08-01T03:10:40;18.3;76.8
78514;SHT31;67814;51.976;5.810;2023-08-01T03:13:08;18.3;77.0
78514;SHT31;67814;51.976;5.810;2023-08-01T03:15:37;18.3;77.2
78514;SHT31;67814;51.976;5.810;2023-08-01T03:18:05;18.3;77.0
78514;SHT31;67814;51.976;5.810;2023-08-01T03:20:34;18.3;77.2
78514;SHT31;67814;51.976;5.810;2023-08-01T03:23:03;18.3;77.2
78514;SHT31;67814;51.976;5.810;2023-08-01T03:25:33;18.3;77.3
78514;SHT31;67814;51.976;5.810;2023-08-01T03:28:01;18.3;77.3
78514;SHT31;67814;51.976;5.810;2023-08-01T03:30:31;18.4;77.2
78514;SHT31;67814;51.976;5.810;2023-08-01T03:33:00;18.4;77.5
78514;SHT31;67814;51.976;5.810;2023-08-01T03:35:29;18.4;77.5
78514;SHT31;67814;51.976;5.810;2023-08-01T03:37:58;18.4;77.7
78514;SHT31;67814;51.976;5.810;2023-08-01T03:40:26;18.4;77.9
78514;SHT31;67814;51.976;5.810;2023-08-01T03:42:57;18.4;78.1
78514;SHT31;67814;51.976;5.810;2023-08-01T03:45:27;18.4;78.1
78514;SHT31;67814;51.976;5.810;2023-08-01T03:47:55;18.4;78.0
78514;SHT31;67814;51.976;5.810;2023-08-01T03:50:24;18.4;78.0
78514;SHT31;67814;51.976;5.810;2023-08-01T03:52:53;18.4;77.8
78514;SHT31;67814;51.976;5.810;2023-08-01T03:55:21;18.4;77.8
78514;SHT31;67814;51.976;5.810;2023-08-01T03:57:50;18.5;78.0
78514;SHT31;67814;51.976;5.810;2023-08-01T04:00:18;18.5;77.7
78514;SHT31;67814;51.976;5.810;2023-08-01T04:02:47;18.5;77.4
78514;SHT31;67814;51.976;5.810;2023-08-01T04:05:15;18.5;77.5
78514;SHT31;67814;51.976;5.810;2023-08-01T04:07:44;18.5;77.6
78514;SHT31;67814;51.976;5.810;2023-08-01T04:10:12;18.6;77.5
78514;SHT31;67814;51.976;5.810;2023-08-01T04:12:41;18.6;77.0
78514;SHT31;67814;51.976;5.810;2023-08-01T04:15:11;18.6;77.0
78514;SHT31;67814;51.976;5.810;2023-08-01T04:17:39;18.6;77.2
78514;SHT31;67814;51.976;5.810;2023-08-01T04:20:11;18.6;77.0
78514;SHT31;67814;51.976;5.810;2023-08-01T04:22:39;18.6;76.9
78514;SHT31;67814;51.976;5.810;2023-08-01T04:25:08;18.7;76.8
78514;SHT31;67814;51.976;5.810;2023-08-01T04:27:37;18.7;76.8
78514;SHT31;67814;51.976;5.810;2023-08-01T04:30:06;18.7;76.8
78514;SHT31;67814;51.976;5.810;2023-08-01T04:32:34;18.7;77.0
78514;SHT31;67814;51.976;5.810;2023-08-01T04:35:03;18.7;76.9
78514;SHT31;67814;51.976;5.810;2023-08-01T04:37:32;18.7;77.0
78514;SHT31;67814;51.976;5.810;2023-08-01T04:40:01;18.7;76.6
78514;SHT31;67814;51.976;5.810;2023-08-01T04:42:29;18.7;76.7
78514;SHT31;67814;51.976;5.810;2023-08-01T04:44:58;18.7;76.7
78514;SHT31;67814;51.976;5.810;2023-08-01T04:47:26;18.7;76.5
78514;SHT31;67814;51.976;5.810;2023-08-01T04:49:55;18.7;76.6
78514;SHT31;67814;51.976;5.810;2023-08-01T04:52:23;18.7;76.6
78514;SHT31;67814;51.976;5.810;2023-08-01T04:54:52;18.7;76.6
78514;SHT31;67814;51.976;5.810;2023-08-01T04:57:20;18.7;76.7
78514;SHT31;67814;51.976;5.810;2023-08-01T04:59:48;18.7;76.8
78514;SHT31;67814;51.976;5.810;2023-08-01T05:02:17;18.7;76.7
78514;SHT31;67814;51.976;5.810;2023-08-01T05:04:45;18.7;76.7
78514;SHT31;67814;51.976;5.810;2023-08-01T05:07:14;18.7;76.7
78514;SHT31;67814;51.976;5.810;2023-08-01T05:09:42;18.7;76.9
78514;SHT31;67814;51.976;5.810;2023-08-01T05:12:11;18.7;76.7
78514;SHT31;67814;51.976;5.810;2023-08-01T05:14:39;18.7;76.6
78514;SHT31;67814;51.976;5.810;2023-08-01T05:17:08;18.7;76.7
78514;SHT31;67814;51.976;5.810;2023-08-01T05:19:37;18.8;76.6
78514;SHT31;67814;51.976;5.810;2023-08-01T05:22:05;18.8;76.7
78514;SHT31;67814;51.976;5.810;2023-08-01T05:24:34;18.8;76.6
78514;SHT31;67814;51.976;5.810;2023-08-01T05:27:03;18.8;76.9
78514;SHT31;67814;51.976;5.810;2023-08-01T05:29:31;18.8;76.6
78514;SHT31;67814;51.976;5.810;2023-08-01T05:32:00;18.8;76.6
78514;SHT31;67814;51.976;5.810;2023-08-01T05:34:28;18.8;76.8
78514;SHT31;67814;51.976;5.810;2023-08-01T05:36:58;18.8;77.3
78514;SHT31;67814;51.976;5.810;2023-08-01T05:39:27;18.9;77.1
78514;SHT31;67814;51.976;5.810;2023-08-01T05:41:56;18.9;76.7
78514;SHT31;67814;51.976;5.810;2023-08-01T05:44:25;18.9;76.8
78514;SHT31;67814;51.976;5.810;2023-08-01T05:46:54;19.0;76.4
78514;SHT31;67814;51.976;5.810;2023-08-01T05:49:22;19.0;76.4
78514;SHT31;67814;51.976;5.810;2023-08-01T05:51:51;19.0;76.4
78514;SHT31;67814;51.976;5.810;2023-08-01T05:54:19;19.0;76.3
78514;SHT31;67814;51.976;5.810;2023-08-01T05:56:48;19.1;76.9
78514;SHT31;67814;51.976;5.810;2023-08-01T05:59:16;19.1;76.1
78514;SHT31;67814;51.976;5.810;2023-08-01T06:01:46;19.2;76.7
78514;SHT31;67814;51.976;5.810;2023-08-01T06:04:14;19.2;76.3
78514;SHT31;67814;51.976;5.810;2023-08-01T06:06:43;19.3;76.4
78514;SHT31;67814;51.976;5.810;2023-08-01T06:09:11;19.3;76.0
78514;SHT31;67814;51.976;5.810;2023-08-01T06:11:40;19.4;75.9
78514;SHT31;67814;51.976;5.810;2023-08-01T06:14:09;19.4;75.7
78514;SHT31;67814;51.976;5.810;2023-08-01T06:16:37;19.4;75.3
78514;SHT31;67814;51.976;5.810;2023-08-01T06:19:06;19.4;74.7
78514;SHT31;67814;51.976;5.810;2023-08-01T06:21:35;19.4;74.9
78514;SHT31;67814;51.976;5.810;2023-08-01T06:24:04;19.4;74.6
78514;SHT31;67814;51.976;5.810;2023-08-01T06:26:34;19.4;74.1
78514;SHT31;67814;51.976;5.810;2023-08-01T06:29:03;19.4;74.7
78514;SHT31;67814;51.976;5.810;2023-08-01T06:31:31;19.4;75.1
78514;SHT31;67814;51.976;5.810;2023-08-01T06:34:00;19.5;74.6
78514;SHT31;67814;51.976;5.810;2023-08-01T06:36:30;19.5;75.1
78514;SHT31;67814;51.976;5.810;2023-08-01T06:38:59;19.5;74.6
78514;SHT31;67814;51.976;5.810;2023-08-01T06:41:27;19.5;75.3
78514;SHT31;67814;51.976;5.810;2023-08-01T06:43:56;19.6;74.7
78514;SHT31;67814;51.976;5.810;2023-08-01T06:46:25;19.6;74.6
78514;SHT31;67814;51.976;5.810;2023-08-01T06:48:53;19.6;74.8
78514;SHT31;67814;51.976;5.810;2023-08-01T06:51:21;19.7;74.3
78514;SHT31;67814;51.976;5.810;2023-08-01T06:53:50;19.7;75.1
78514;SHT31;67814;51.976;5.810;2023-08-01T06:56:18;19.8;74.6
78514;SHT31;67814;51.976;5.810;2023-08-01T06:58:48;19.8;74.3
78514;SHT31;67814;51.976;5.810;2023-08-01T07:01:16;19.9;74.0
78514;SHT31;67814;51.976;5.810;2023-08-01T07:03:45;19.9;73.4
78514;SHT31;67814;51.976;5.810;2023-08-01T07:06:14;19.9;73.6
78514;SHT31;67814;51.976;5.810;2023-08-01T07:08:42;19.9;73.1
78514;SHT31;67814;51.976;5.810;2023-08-01T07:11:11;20.0;73.4
78514;SHT31;67814;51.976;5.810;2023-08-01T07:13:39;20.0;73.4
78514;SHT31;67814;51.976;5.810;2023-08-01T07:16:08;20.0;73.4
78514;SHT31;67814;51.976;5.810;2023-08-01T07:18:36;20.1;73.3
78514;SHT31;67814;51.976;5.810;2023-08-01T07:21:05;20.2;73.1
78514;SHT31;67814;51.976;5.810;2023-08-01T07:23:34;20.2;71.9
78514;SHT31;67814;51.976;5.810;2023-08-01T07:26:03;20.3;71.4
78514;SHT31;67814;51.976;5.810;2023-08-01T07:28:32;20.4;70.2
78514;SHT31;67814;51.976;5.810;2023-08-01T07:31:02;20.4;70.5
78514;SHT31;67814;51.976;5.810;2023-08-01T07:33:32;20.5;70.8
78514;SHT31;67814;51.976;5.810;2023-08-01T07:36:00;20.6;70.7
78514;SHT31;67814;51.976;5.810;2023-08-01T07:38:29;20.8;70.5
78514;SHT31;67814;51.976;5.810;2023-08-01T07:41:04;20.9;68.2
78514;SHT31;67814;51.976;5.810;2023-08-01T07:43:33;21.0;70.5
78514;SHT31;67814;51.976;5.810;2023-08-01T07:46:02;21.1;68.1
78514;SHT31;67814;51.976;5.810;2023-08-01T07:48:30;21.2;65.8
78514;SHT31;67814;51.976;5.810;2023-08-01T07:51:00;21.3;68.0
78514;SHT31;67814;51.976;5.810;2023-08-01T07:53:29;21.3;68.8
78514;SHT31;67814;51.976;5.810;2023-08-01T07:55:58;21.4;66.9
78514;SHT31;67814;51.976;5.810;2023-08-01T07:58:30;21.5;66.2
78514;SHT31;67814;51.976;5.810;2023-08-01T08:01:02;21.6;66.0
78514;SHT31;67814;51.976;5.810;2023-08-01T08:03:30;21.7;65.9
78514;SHT31;67814;51.976;5.810;2023-08-01T08:05:59;21.7;64.3
78514;SHT31;67814;51.976;5.810;2023-08-01T08:08:30;21.7;64.8
78514;SHT31;67814;51.976;5.810;2023-08-01T08:10:59;21.7;65.4
78514;SHT31;67814;51.976;5.810;2023-08-01T08:13:29;21.7;66.1
78514;SHT31;67814;51.976;5.810;2023-08-01T08:15:58;21.7;65.0
78514;SHT31;67814;51.976;5.810;2023-08-01T08:18:27;21.6;65.4
78514;SHT31;67814;51.976;5.810;2023-08-01T08:20:55;21.4;65.9
78514;SHT31;67814;51.976;5.810;2023-08-01T08:23:23;21.2;66.5
78514;SHT31;67814;51.976;5.810;2023-08-01T08:25:53;21.0;66.5
78514;SHT31;67814;51.976;5.810;2023-08-01T08:28:30;20.9;68.4
78514;SHT31;67814;51.976;5.810;2023-08-01T08:30:59;20.7;70.1
78514;SHT31;67814;51.976;5.810;2023-08-01T08:33:29;20.6;71.2
78514;SHT31;67814;51.976;5.810;2023-08-01T08:35:59;20.6;71.8
78514;SHT31;67814;51.976;5.810;2023-08-01T08:38:28;20.5;68.9
78514;SHT31;67814;51.976;5.810;2023-08-01T08:41:05;20.5;72.6
78514;SHT31;67814;51.976;5.810;2023-08-01T08:43:35;20.5;73.0
78514;SHT31;67814;51.976;5.810;2023-08-01T08:46:05;20.5;71.3
78514;SHT31;67814;51.976;5.810;2023-08-01T08:48:37;20.6;71.2
78514;SHT31;67814;51.976;5.810;2023-08-01T08:51:10;20.7;73.0
78514;SHT31;67814;51.976;5.810;2023-08-01T08:53:40;20.8;69.9
78514;SHT31;67814;51.976;5.810;2023-08-01T08:56:11;20.8;69.5
78514;SHT31;67814;51.976;5.810;2023-08-01T08:58:41;20.9;69.0
78514;SHT31;67814;51.976;5.810;2023-08-01T09:01:12;21.0;69.1
78514;SHT31;67814;51.976;5.810;2023-08-01T09:03:42;21.0;68.0
78514;SHT31;67814;51.976;5.810;2023-08-01T09:06:15;21.1;65.8
78514;SHT31;67814;51.976;5.810;2023-08-01T09:08:51;21.1;67.6
78514;SHT31;67814;51.976;5.810;2023-08-01T09:11:24;21.2;67.2
78514;SHT31;67814;51.976;5.810;2023-08-01T09:13:53;21.2;67.3
78514;SHT31;67814;51.976;5.810;2023-08-01T09:16:21;21.3;67.2
78514;SHT31;67814;51.976;5.810;2023-08-01T09:18:51;21.3;64.6
78514;SHT31;67814;51.976;5.810;2023-08-01T09:21:21;21.4;65.3
78514;SHT31;67814;51.976;5.810;2023-08-01T09:23:50;21.4;65.1
78514;SHT31;67814;51.976;5.810;2023-08-01T09:26:20;21.5;64.2
78514;SHT31;67814;51.976;5.810;2023-08-01T09:28:57;21.5;62.3
78514;SHT31;67814;51.976;5.810;2023-08-01T09:31:30;21.6;64.0
78514;SHT31;67814;51.976;5.810;2023-08-01T09:34:00;21.7;62.5
78514;SHT31;67814;51.976;5.810;2023-08-01T09:36:30;21.7;63.9
78514;SHT31;67814;51.976;5.810;2023-08-01T09:39:01;21.8;61.7
78514;SHT31;67814;51.976;5.810;2023-08-01T09:41:31;21.9;60.9
78514;SHT31;67814;51.976;5.810;2023-08-01T09:44:00;21.9;61.7
78514;SHT31;67814;51.976;5.810;2023-08-01T09:46:28;21.9;59.6
78514;SHT31;67814;51.976;5.810;2023-08-01T09:49:10;21.9;60.6
78514;SHT31;67814;51.976;5.810;2023-08-01T09:51:48;21.9;60.3
78514;SHT31;67814;51.976;5.810;2023-08-01T09:54:18;22.0;60.1
78514;SHT31;67814;51.976;5.810;2023-08-01T09:56:48;22.0;58.9
78514;SHT31;67814;51.976;5.810;2023-08-01T09:59:19;22.0;61.2
78514;SHT31;67814;51.976;5.810;2023-08-01T10:01:49;22.0;60.5
78514;SHT31;67814;51.976;5.810;2023-08-01T10:04:23;22.0;60.0
78514;SHT31;67814;51.976;5.810;2023-08-01T10:06:54;22.0;60.7
78514;SHT31;67814;51.976;5.810;2023-08-01T10:09:26;22.0;58.9
78514;SHT31;67814;51.976;5.810;2023-08-01T10:11:57;22.0;59.3
78514;SHT31;67814;51.976;5.810;2023-08-01T10:14:28;22.0;57.5
78514;SHT31;67814;51.976;5.810;2023-08-01T10:16:57;22.0;57.3
78514;SHT31;67814;51.976;5.810;2023-08-01T10:19:26;22.0;57.8
78514;SHT31;67814;51.976;5.810;2023-08-01T10:21:55;22.0;58.5
78514;SHT31;67814;51.976;5.810;2023-08-01T10:24:26;22.0;59.0
78514;SHT31;67814;51.976;5.810;2023-08-01T10:26:55;22.0;60.0
78514;SHT31;67814;51.976;5.810;2023-08-01T10:29:36;22.0;58.6
78514;SHT31;67814;51.976;5.810;2023-08-01T10:32:07;22.0;56.5
78514;SHT31;67814;51.976;5.810;2023-08-01T10:34:36;22.1;56.4
78514;SHT31;67814;51.976;5.810;2023-08-01T10:37:05;22.1;56.7
78514;SHT31;67814;51.976;5.810;2023-08-01T10:39:33;22.1;57.0
78514;SHT31;67814;51.976;5.810;2023-08-01T10:42:03;22.2;56.3
78514;SHT31;67814;51.976;5.810;2023-08-01T10:44:33;22.2;55.8
78514;SHT31;67814;51.976;5.810;2023-08-01T10:47:07;22.2;57.7
78514;SHT31;67814;51.976;5.810;2023-08-01T10:49:37;22.2;57.1
78514;SHT31;67814;51.976;5.810;2023-08-01T10:52:20;22.2;58.1
78514;SHT31;67814;51.976;5.810;2023-08-01T10:54:59;22.3;57.6
78514;SHT31;67814;51.976;5.810;2023-08-01T10:57:30;22.4;58.9
78514;SHT31;67814;51.976;5.810;2023-08-01T10:59:59;22.4;57.1
78514;SHT31;67814;51.976;5.810;2023-08-01T11:02:31;22.5;58.5
78514;SHT31;67814;51.976;5.810;2023-08-01T11:05:02;22.6;58.0
78514;SHT31;67814;51.976;5.810;2023-08-01T11:07:32;22.6;56.7
78514;SHT31;67814;51.976;5.810;2023-08-01T11:10:07;22.7;54.2
78514;SHT31;67814;51.976;5.810;2023-08-01T11:12:37;22.7;56.2
78514;SHT31;67814;51.976;5.810;2023-08-01T11:15:08;22.8;56.6
78514;SHT31;67814;51.976;5.810;2023-08-01T11:17:38;22.8;57.1
78514;SHT31;67814;51.976;5.810;2023-08-01T11:20:08;22.9;56.9
78514;SHT31;67814;51.976;5.810;2023-08-01T11:22:48;22.9;55.3
78514;SHT31;67814;51.976;5.810;2023-08-01T11:25:12;23.0;56.0
78514;SHT31;67814;51.976;5.810;2023-08-01T11:27:42;23.0;56.7
78514;SHT31;67814;51.976;5.810;2023-08-01T11:30:11;23.0;55.5
78514;SHT31;67814;51.976;5.810;2023-08-01T11:32:40;23.0;55.6
78514;SHT31;67814;51.976;5.810;2023-08-01T11:35:16;23.1;54.7
78514;SHT31;67814;51.976;5.810;2023-08-01T11:37:46;23.1;55.0
78514;SHT31;67814;51.976;5.810;2023-08-01T11:40:15;23.1;55.9
78514;SHT31;67814;51.976;5.810;2023-08-01T11:42:48;23.1;54.9
78514;SHT31;67814;51.976;5.810;2023-08-01T11:45:18;23.0;54.4
78514;SHT31;67814;51.976;5.810;2023-08-01T11:47:47;23.0;53.1
78514;SHT31;67814;51.976;5.810;2023-08-01T11:50:23;23.1;53.5
78514;SHT31;67814;51.976;5.810;2023-08-01T11:52:52;23.1;52.5
78514;SHT31;67814;51.976;5.810;2023-08-01T11:55:26;23.0;53.1
78514;SHT31;67814;51.976;5.810;2023-08-01T11:57:56;23.0;53.0
78514;SHT31;67814;51.976;5.810;2023-08-01T12:00:27;23.0;52.9
78514;SHT31;67814;51.976;5.810;2023-08-01T12:03:07;22.9;53.7
78514;SHT31;67814;51.976;5.810;2023-08-01T12:05:39;22.9;56.4
78514;SHT31;67814;51.976;5.810;2023-08-01T12:08:13;22.9;54.9
78514;SHT31;67814;51.976;5.810;2023-08-01T12:10:44;23.0;54.6
78514;SHT31;67814;51.976;5.810;2023-08-01T12:13:23;23.0;55.4
78514;SHT31;67814;51.976;5.810;2023-08-01T12:15:54;23.0;54.4
78514;SHT31;67814;51.976;5.810;2023-08-01T12:18:25;23.0;54.4
78514;SHT31;67814;51.976;5.810;2023-08-01T12:20:54;23.0;54.8
78514;SHT31;67814;51.976;5.810;2023-08-01T12:23:22;23.0;52.9
78514;SHT31;67814;51.976;5.810;2023-08-01T12:25:51;22.9;54.3
78514;SHT31;67814;51.976;5.810;2023-08-01T12:28:21;22.8;54.6
78514;SHT31;67814;51.976;5.810;2023-08-01T12:30:49;22.7;55.0
78514;SHT31;67814;51.976;5.810;2023-08-01T12:33:18;22.6;56.2
78514;SHT31;67814;51.976;5.810;2023-08-01T12:35:47;22.5;56.2
78514;SHT31;67814;51.976;5.810;2023-08-01T12:38:16;22.5;55.4
78514;SHT31;67814;51.976;5.810;2023-08-01T12:40:44;22.5;56.5
78514;SHT31;67814;51.976;5.810;2023-08-01T12:43:13;22.5;55.2
78514;SHT31;67814;51.976;5.810;2023-08-01T12:45:43;22.5;54.8
78514;SHT31;67814;51.976;5.810;2023-08-01T12:48:12;22.4;54.6
78514;SHT31;67814;51.976;5.810;2023-08-01T12:50:43;22.4;54.2
78514;SHT31;67814;51.976;5.810;2023-08-01T12:53:11;22.4;54.1
78514;SHT31;67814;51.976;5.810;2023-08-01T12:55:42;22.3;55.8
78514;SHT31;67814;51.976;5.810;2023-08-01T12:58:11;22.3;55.3
78514;SHT31;67814;51.976;5.810;2023-08-01T13:00:41;22.3;55.3
78514;SHT31;67814;51.976;5.810;2023-08-01T13:03:11;22.3;54.2
78514;SHT31;67814;51.976;5.810;2023-08-01T13:05:41;22.3;55.2
78514;SHT31;67814;51.976;5.810;2023-08-01T13:08:10;22.3;57.1
78514;SHT31;67814;51.976;5.810;2023-08-01T13:10:39;22.4;56.8
78514;SHT31;67814;51.976;5.810;2023-08-01T13:13:07;22.4;56.4
78514;SHT31;67814;51.976;5.810;2023-08-01T13:15:36;22.4;55.0
78514;SHT31;67814;51.976;5.810;2023-08-01T13:18:07;22.5;56.8
78514;SHT31;67814;51.976;5.810;2023-08-01T13:20:35;22.6;55.3
78514;SHT31;67814;51.976;5.810;2023-08-01T13:23:03;22.6;58.0
78514;SHT31;67814;51.976;5.810;2023-08-01T13:25:32;22.8;54.1
78514;SHT31;67814;51.976;5.810;2023-08-01T13:28:00;22.8;53.6
78514;SHT31;67814;51.976;5.810;2023-08-01T13:30:30;22.9;54.5
78514;SHT31;67814;51.976;5.810;2023-08-01T13:32:59;23.0;51.7
78514;SHT31;67814;51.976;5.810;2023-08-01T13:35:27;23.0;53.2
78514;SHT31;67814;51.976;5.810;2023-08-01T13:37:56;23.0;51.7
78514;SHT31;67814;51.976;5.810;2023-08-01T13:40:24;23.1;52.3
78514;SHT31;67814;51.976;5.810;2023-08-01T13:42:53;23.1;54.3
78514;SHT31;67814;51.976;5.810;2023-08-01T13:45:21;23.1;51.7
78514;SHT31;67814;51.976;5.810;2023-08-01T13:47:50;23.2;51.1
78514;SHT31;67814;51.976;5.810;2023-08-01T13:50:18;23.2;50.9
78514;SHT31;67814;51.976;5.810;2023-08-01T13:52:47;23.2;52.2
78514;SHT31;67814;51.976;5.810;2023-08-01T13:55:15;23.2;50.0
78514;SHT31;67814;51.976;5.810;2023-08-01T13:57:45;23.2;50.6
78514;SHT31;67814;51.976;5.810;2023-08-01T14:00:14;23.1;52.0
78514;SHT31;67814;51.976;5.810;2023-08-01T14:02:42;23.1;51.0
78514;SHT31;67814;51.976;5.810;2023-08-01T14:05:11;23.1;51.3
78514;SHT31;67814;51.976;5.810;2023-08-01T14:07:42;23.0;53.6
78514;SHT31;67814;51.976;5.810;2023-08-01T14:10:10;23.0;51.0
78514;SHT31;67814;51.976;5.810;2023-08-01T14:12:40;23.1;51.0
78514;SHT31;67814;51.976;5.810;2023-08-01T14:15:10;23.1;49.6
78514;SHT31;67814;51.976;5.810;2023-08-01T14:17:40;23.1;50.6
78514;SHT31;67814;51.976;5.810;2023-08-01T14:20:09;23.1;50.3
78514;SHT31;67814;51.976;5.810;2023-08-01T14:22:37;23.1;50.9
78514;SHT31;67814;51.976;5.810;2023-08-01T14:25:06;23.1;53.2
78514;SHT31;67814;51.976;5.810;2023-08-01T14:27:35;23.1;52.1
78514;SHT31;67814;51.976;5.810;2023-08-01T14:30:04;23.1;52.4
78514;SHT31;67814;51.976;5.810;2023-08-01T14:32:36;23.2;51.3
78514;SHT31;67814;51.976;5.810;2023-08-01T14:35:06;23.2;50.6
78514;SHT31;67814;51.976;5.810;2023-08-01T14:37:34;23.3;50.4
78514;SHT31;67814;51.976;5.810;2023-08-01T14:40:03;23.3;51.1
78514;SHT31;67814;51.976;5.810;2023-08-01T14:42:32;23.3;49.9
78514;SHT31;67814;51.976;5.810;2023-08-01T14:45:00;23.3;48.6
78514;SHT31;67814;51.976;5.810;2023-08-01T14:47:29;23.4;48.4
78514;SHT31;67814;51.976;5.810;2023-08-01T14:50:00;23.4;49.1
78514;SHT31;67814;51.976;5.810;2023-08-01T14:52:29;23.3;48.6
78514;SHT31;67814;51.976;5.810;2023-08-01T14:54:57;23.3;49.7
78514;SHT31;67814;51.976;5.810;2023-08-01T14:57:26;23.2;50.6
78514;SHT31;67814;51.976;5.810;2023-08-01T14:59:55;23.2;51.7
78514;SHT31;67814;51.976;5.810;2023-08-01T15:02:23;23.1;51.2
78514;SHT31;67814;51.976;5.810;2023-08-01T15:04:53;23.1;51.2
78514;SHT31;67814;51.976;5.810;2023-08-01T15:07:23;23.0;52.0
78514;SHT31;67814;51.976;5.810;2023-08-01T15:09:52;23.0;52.3
78514;SHT31;67814;51.976;5.810;2023-08-01T15:12:22;22.9;52.2
78514;SHT31;67814;51.976;5.810;2023-08-01T15:14:52;22.9;51.6
78514;SHT31;67814;51.976;5.810;2023-08-01T15:17:21;22.8;53.4
78514;SHT31;67814;51.976;5.810;2023-08-01T15:19:50;22.8;53.5
78514;SHT31;67814;51.976;5.810;2023-08-01T15:22:20;22.8;51.8
78514;SHT31;67814;51.976;5.810;2023-08-01T15:24:49;22.8;52.2
78514;SHT31;67814;51.976;5.810;2023-08-01T15:27:17;22.8;52.9
78514;SHT31;67814;51.976;5.810;2023-08-01T15:29:46;22.8;50.8
78514;SHT31;67814;51.976;5.810;2023-08-01T15:32:15;22.8;51.0
78514;SHT31;67814;51.976;5.810;2023-08-01T15:34:43;22.8;51.5
78514;SHT31;67814;51.976;5.810;2023-08-01T15:37:12;22.8;51.3
78514;SHT31;67814;51.976;5.810;2023-08-01T15:39:40;22.8;51.3
78514;SHT31;67814;51.976;5.810;2023-08-01T15:42:10;22.8;51.4
78514;SHT31;67814;51.976;5.810;2023-08-01T15:44:39;22.8;51.8
78514;SHT31;67814;51.976;5.810;2023-08-01T15:47:07;22.8;53.9
78514;SHT31;67814;51.976;5.810;2023-08-01T15:49:36;22.8;51.7
78514;SHT31;67814;51.976;5.810;2023-08-01T15:52:05;22.8;51.2
78514;SHT31;67814;51.976;5.810;2023-08-01T15:54:34;22.7;52.2
78514;SHT31;67814;51.976;5.810;2023-08-01T15:57:02;22.7;52.7
78514;SHT31;67814;51.976;5.810;2023-08-01T15:59:31;22.6;53.0
78514;SHT31;67814;51.976;5.810;2023-08-01T16:01:59;22.5;54.8
78514;SHT31;67814;51.976;5.810;2023-08-01T16:04:27;22.5;53.4
78514;SHT31;67814;51.976;5.810;2023-08-01T16:06:56;22.3;54.2
78514;SHT31;67814;51.976;5.810;2023-08-01T16:09:25;22.2;54.0
78514;SHT31;67814;51.976;5.810;2023-08-01T16:11:53;22.1;55.1
78514;SHT31;67814;51.976;5.810;2023-08-01T16:14:22;22.1;55.7
78514;SHT31;67814;51.976;5.810;2023-08-01T16:16:51;22.0;55.0